Time;durP1;ratioP1;P1;durP2;ratioP2;P2;SDS_P1;SDS_P2;PMS_P1;PMS_P2;Temp;Humidity;BMP_temperature;BMP_pressure;BME280_temperature;BME280_humidity;BME280_pressure;Samples;Min_cycle;Max_cycle;Signal;HPM_P1;HPM_P2
2021/01/07 14:52:25;;;;;;;63.17;36.38;;;4.10;99.90;;;;;;5156944;27;20427;-91
2021/01/07 14:54:55;;;;;;;73.65;43.88;;;4.20;99.90;;;;;;5134224;27;20023;-92
2021/01/07 14:57:39;;;;;;;83.15;44.72;;;4.30;99.90;;;;;;5104553;28;20024;-95
2021/01/07 15:00:07;;;;;;;97.10;54.08;;;4.40;99.90;;;;;;5106043;28;20026;-93
2021/01/07 15:02:49;;;;;;;96.57;50.38;;;4.50;99.90;;;;;;5114157;27;20464;-93
2021/01/07 15:05:24;;;;;;;105.13;57.35;;;4.70;99.90;;;;;;5115937;28;20030;-94
2021/01/07 15:08:18;;;;;;;105.53;53.00;;;4.80;99.90;;;;;;5117989;28;20019;-93
2021/01/07 15:10:48;;;;;;;99.10;55.25;;;5.00;99.90;;;;;;5110472;28;20023;-92
2021/01/07 15:13:19;;;;;;;105.28;58.80;;;5.10;99.90;;;;;;5122952;27;20438;-93
2021/01/07 15:15:59;;;;;;;102.85;54.15;;;5.20;99.90;;;;;;5111734;28;20023;-94
2021/01/07 15:18:40;;;;;;;98.25;54.72;;;5.20;99.90;;;;;;5102988;28;20432;-93
2021/01/07 15:21:12;;;;;;;89.18;49.70;;;5.30;99.90;;;;;;5102027;28;20119;-93
2021/01/07 15:23:56;;;;;;;90.95;48.88;;;5.30;99.90;;;;;;5084398;28;20019;-92
2021/01/07 15:26:35;;;;;;;88.63;47.47;;;5.40;99.90;;;;;;5121667;28;20414;-92
2021/01/07 15:29:06;;;;;;;79.93;42.80;;;5.50;99.90;;;;;;5121792;28;20028;-91
2021/01/07 15:31:45;;;;;;;73.35;42.47;;;5.50;99.90;;;;;;5102281;28;20379;-92
2021/01/07 15:34:31;;;;;;;69.38;36.88;;;5.60;99.90;;;;;;5119924;28;20024;-92
2021/01/07 15:37:03;;;;;;;72.70;41.60;;;5.70;99.90;;;;;;5102781;28;20015;-92
2021/01/07 15:40:14;;;;;;;66.45;39.20;;;5.70;99.90;;;;;;5097129;28;20020;-93
2021/01/07 15:43:20;;;;;;;63.28;38.50;;;5.80;99.90;;;;;;5023971;28;20030;-94
2021/01/07 15:46:23;;;;;;;60.85;37.55;;;5.80;99.90;;;;;;4991871;28;20125;-94
2021/01/07 15:48:52;;;;;;;61.67;36.88;;;5.90;99.90;;;;;;5092136;28;20012;-95
2021/01/07 15:51:56;;;;;;;64.28;44.92;;;6.00;99.90;;;;;;5091225;28;20096;-92
2021/01/07 15:54:57;;;;;;;58.00;39.88;;;6.00;99.90;;;;;;5095611;28;20028;-95
2021/01/07 15:57:53;;;;;;;67.70;49.00;;;6.10;99.90;;;;;;5092052;28;20472;-93
2021/01/07 16:00:20;;;;;;;50.03;37.38;;;6.20;99.90;;;;;;5110291;28;20028;-95
2021/01/07 16:02:59;;;;;;;38.92;31.92;;;6.30;99.90;;;;;;5084008;28;20016;-93
2021/01/07 16:05:29;;;;;;;41.38;31.85;;;6.40;99.90;;;;;;5096664;28;20479;-93
2021/01/07 16:08:01;;;;;;;36.53;29.92;;;6.50;99.90;;;;;;5078156;28;20028;-94
2021/01/07 16:10:31;;;;;;;35.38;29.27;;;6.50;99.90;;;;;;5098409;28;20019;-94
2021/01/07 16:12:57;;;;;;;31.25;24.17;;;6.60;99.90;;;;;;5134091;27;20023;-93
2021/01/07 16:15:24;;;;;;;32.72;25.88;;;6.70;99.90;;;;;;5106305;28;20023;-93
2021/01/07 16:17:49;;;;;;;36.10;29.90;;;6.70;99.90;;;;;;5097627;28;20386;-94
2021/01/07 16:20:16;;;;;;;23.67;19.80;;;6.80;99.90;;;;;;5080134;28;20038;-93
2021/01/07 16:22:45;;;;;;;25.23;20.27;;;6.90;99.90;;;;;;5078117;28;20028;-93
2021/01/07 16:25:34;;;;;;;25.60;20.77;;;6.90;99.90;;;;;;5078177;28;20066;-92
2021/01/07 16:28:09;;;;;;;36.05;24.67;;;7.00;99.90;;;;;;5058404;28;20040;-93
2021/01/07 16:30:35;;;;;;;34.90;22.38;;;7.00;99.90;;;;;;5095792;28;20028;-92
2021/01/07 17:13:14;;;;;;;46.08;30.48;;;6.50;99.90;;;;;;5071121;28;20384;-93
2021/01/07 17:15:40;;;;;;;62.05;30.42;;;6.50;99.90;;;;;;5069776;28;20350;-93
2021/01/07 17:18:06;;;;;;;102.80;37.15;;;6.50;99.90;;;;;;5069731;28;20039;-93
2021/01/07 17:20:32;;;;;;;128.63;43.85;;;6.60;99.90;;;;;;5070941;28;20469;-93
2021/01/07 17:22:58;;;;;;;124.10;44.38;;;6.70;99.90;;;;;;5070907;28;20039;-95
2021/01/07 17:25:23;;;;;;;119.13;43.70;;;6.80;99.90;;;;;;5069627;28;20393;-94
2021/01/07 17:27:49;;;;;;;109.07;40.92;;;6.90;99.90;;;;;;5069510;28;20028;-93
2021/01/07 17:30:15;;;;;;;102.45;38.28;;;6.90;99.90;;;;;;5070641;28;20373;-92
2021/01/07 17:32:41;;;;;;;74.68;32.00;;;7.00;99.90;;;;;;5070680;28;20025;-93
2021/01/07 17:35:09;;;;;;;60.60;28.38;;;7.10;99.90;;;;;;5070971;28;20107;-92
2021/01/07 17:37:34;;;;;;;36.13;21.40;;;7.20;99.90;;;;;;5070872;28;20024;-93
2021/01/07 17:40:00;;;;;;;23.52;15.85;;;7.20;99.90;;;;;;5070626;28;20025;-93
2021/01/07 17:42:26;;;;;;;15.38;12.63;;;7.20;99.90;;;;;;5069206;28;20035;-92
2021/01/07 17:44:52;;;;;;;11.13;9.73;;;7.30;99.90;;;;;;5070539;28;20411;-93
2021/01/07 17:47:17;;;;;;;9.48;7.88;;;7.30;99.90;;;;;;5070868;28;20021;-93
2021/01/07 17:49:44;;;;;;;8.52;7.43;;;7.30;99.90;;;;;;5069291;28;20382;-94
2021/01/07 17:52:10;;;;;;;7.40;6.60;;;7.40;99.90;;;;;;5068788;28;20056;-94
2021/01/07 17:54:41;;;;;;;7.05;6.35;;;7.40;99.90;;;;;;5068628;28;20082;-92
2021/01/07 17:57:07;;;;;;;7.63;6.32;;;7.40;99.90;;;;;;5067876;28;20489;-93
2021/01/07 17:59:35;;;;;;;8.13;5.80;;;7.40;99.90;;;;;;5069770;28;20024;-93
2021/01/07 18:02:04;;;;;;;6.38;5.30;;;7.40;99.90;;;;;;5068343;28;20111;-93
2021/01/07 18:04:30;;;;;;;6.43;5.53;;;7.40;99.90;;;;;;5068401;28;20071;-91
2021/01/07 18:06:56;;;;;;;7.53;5.75;;;7.40;99.90;;;;;;5068343;28;20024;-92
2021/01/07 18:09:22;;;;;;;8.23;6.57;;;7.40;99.90;;;;;;5069587;28;20021;-92
2021/01/07 18:11:52;;;;;;;7.38;6.30;;;7.40;99.90;;;;;;5068443;28;20074;-92
2021/01/07 20:26:07;;;;;;;1.15;1.05;;;4.00;99.10;;;;;;5123119;27;839700;-91
2021/01/07 20:28:33;;;;;;;1.20;1.08;;;3.90;99.50;;;;;;5124678;28;20024;-92
